Time;durP1;ratioP1;P1;durP2;ratioP2;P2;SDS_P1;SDS_P2;PMS_P1;PMS_P2;Temp;Humidity;BMP_temperature;BMP_pressure;BME280_temperature;BME280_humidity;BME280_pressure;Samples;Min_cycle;Max_cycle;Signal;HPM_P1;HPM_P2
2021/10/09 00:04:01;;;;;;;38.53;35.17;;;;;;;22.83;47.25;95464.63;4895664;28;20064;-66
2021/10/09 00:06:26;;;;;;;36.40;33.35;;;;;;;22.81;47.01;95472.53;4921625;29;20085;-66
2021/10/09 00:08:52;;;;;;;30.98;28.42;;;;;;;22.81;46.69;95461.66;4929912;29;20028;-66
2021/10/09 00:11:32;;;;;;;29.27;26.95;;;;;;;22.78;46.85;95468.84;4928506;29;20042;-66
2021/10/09 00:13:58;;;;;;;38.92;35.60;;;;;;;22.73;46.99;95466.84;4930918;29;20406;-66
2021/10/09 00:16:23;;;;;;;30.38;28.00;;;;;;;22.78;47.24;95462.63;4912886;29;20083;-65
2021/10/09 00:18:49;;;;;;;38.35;35.00;;;;;;;22.62;46.89;95445.06;4930573;29;20046;-66
2021/10/09 00:21:14;;;;;;;36.40;33.28;;;;;;;22.77;47.16;95461.16;4903037;29;20514;-66
2021/10/09 00:23:39;;;;;;;30.80;28.33;;;;;;;22.72;47.05;95459.16;4910501;29;20027;-65
2021/10/09 00:26:05;;;;;;;32.85;30.23;;;;;;;22.74;46.79;95452.00;4908746;29;20523;-65
2021/10/09 00:28:30;;;;;;;38.88;35.50;;;;;;;22.74;46.79;95456.72;4911826;29;20028;-65
2021/10/09 00:30:56;;;;;;;30.17;27.80;;;;;;;22.73;46.92;95455.22;4914289;29;20036;-65
2021/10/09 00:33:21;;;;;;;28.50;26.27;;;;;;;22.73;46.85;95455.22;4930719;29;20031;-66
2021/10/09 00:35:47;;;;;;;31.45;28.83;;;;;;;22.71;46.73;95452.25;4927898;29;20058;-66
2021/10/09 00:38:13;;;;;;;40.72;37.10;;;;;;;22.66;47.26;95444.81;4916685;29;20418;-65
2021/10/09 00:40:38;;;;;;;35.30;32.38;;;;;;;22.70;46.94;95439.88;4902206;29;20087;-66
2021/10/09 00:43:04;;;;;;;33.88;31.13;;;;;;;22.68;46.86;95445.06;4919601;29;20036;-66
2021/10/09 00:45:29;;;;;;;34.55;31.63;;;;;;;22.69;47.31;95443.81;4926539;29;20031;-66
2021/10/09 00:47:55;;;;;;;36.95;33.78;;;;;;;22.68;47.13;95445.06;4929200;29;20495;-65
2021/10/09 00:50:20;;;;;;;31.42;28.88;;;;;;;22.64;47.13;95442.56;4912608;29;20031;-65
2021/10/09 00:52:46;;;;;;;39.30;35.88;;;;;;;22.52;47.24;95424.00;4928802;29;20040;-66
2021/10/09 00:55:11;;;;;;;34.97;32.08;;;;;;;22.49;46.93;95430.44;4912701;29;20062;-66
2021/10/09 00:57:37;;;;;;;37.20;34.05;;;;;;;22.65;47.15;95443.34;4928506;29;20031;-65
2021/10/09 01:00:03;;;;;;;40.42;36.88;;;;;;;22.65;47.38;95448.78;4929725;29;20038;-65
2021/10/09 01:02:29;;;;;;;38.88;35.47;;;;;;;22.63;47.06;95441.09;4929720;29;20079;-65
2021/10/09 01:04:55;;;;;;;34.10;31.23;;;;;;;22.62;46.66;95439.59;4929462;29;20028;-65
2021/10/09 01:07:20;;;;;;;38.45;35.17;;;;;;;22.63;47.11;95441.09;4912506;29;20047;-65
2021/10/09 01:09:46;;;;;;;29.08;26.85;;;;;;;22.62;46.96;95438.88;4929515;29;20043;-65
2021/10/09 01:12:14;;;;;;;31.00;28.50;;;;;;;22.62;47.06;95439.59;4929662;29;20509;-65
2021/10/09 01:14:41;;;;;;;33.70;30.98;;;;;;;22.64;46.78;95436.41;4929544;29;20055;-64
2021/10/09 01:17:09;;;;;;;35.67;32.78;;;;;;;22.61;47.04;95432.66;4928064;29;20122;-65
2021/10/09 01:19:35;;;;;;;37.67;34.58;;;;;;;22.62;46.90;95433.44;4912360;29;20039;-65
2021/10/09 01:22:00;;;;;;;40.78;37.13;;;;;;;22.61;47.14;95431.94;4929270;29;20090;-65
2021/10/09 01:24:26;;;;;;;28.95;26.70;;;;;;;22.60;46.85;95435.88;4929290;29;20509;-65
2021/10/09 01:26:51;;;;;;;34.05;31.25;;;;;;;22.55;46.96;95428.47;4929114;29;20538;-65
2021/10/09 01:29:16;;;;;;;36.92;33.78;;;;;;;22.58;47.31;95432.94;4929255;29;20027;-65
2021/10/09 01:31:42;;;;;;;40.20;36.72;;;;;;;22.58;47.08;95432.94;4929281;29;20106;-65
2021/10/09 01:34:07;;;;;;;29.73;27.48;;;;;;;22.57;46.97;95436.88;4929099;29;20034;-65
2021/10/09 01:36:34;;;;;;;36.75;33.67;;;;;;;22.55;47.08;95440.09;4911947;29;20058;-65
2021/10/09 01:39:00;;;;;;;36.90;33.78;;;;;;;22.56;46.79;95429.97;4928856;29;20032;-65
2021/10/09 01:41:26;;;;;;;32.20;29.58;;;;;;;22.53;46.85;95426.25;4911625;29;20478;-65
2021/10/09 01:43:51;;;;;;;39.65;36.15;;;;;;;22.52;46.99;95424.00;4928856;29;20031;-65
2021/10/09 01:46:17;;;;;;;29.83;27.55;;;;;;;22.54;46.95;95421.53;4928680;29;20034;-65
2021/10/09 01:48:42;;;;;;;32.75;30.08;;;;;;;22.51;46.89;95422.50;4929128;29;20095;-65
2021/10/09 01:51:08;;;;;;;34.83;31.90;;;;;;;22.41;47.07;95407.69;4911714;29;20031;-65
2021/10/09 01:53:34;;;;;;;28.48;26.20;;;;;;;22.49;47.11;95414.84;4928946;29;20059;-63
2021/10/09 01:55:59;;;;;;;43.17;39.03;;;;;;;22.49;46.82;95425.00;4910989;29;20114;-64
2021/10/09 01:58:25;;;;;;;39.15;35.72;;;;;;;22.37;46.89;95406.44;4927202;29;20553;-64
2021/10/09 02:00:51;;;;;;;32.97;30.17;;;;;;;22.48;47.26;95412.63;4928133;29;20026;-64
2021/10/09 02:03:19;;;;;;;40.92;37.33;;;;;;;22.46;46.80;95415.09;4921407;29;20059;-65
2021/10/09 02:05:44;;;;;;;41.80;38.10;;;;;;;22.46;47.25;95420.53;4892677;29;20043;-65
2021/10/09 02:08:10;;;;;;;40.40;36.75;;;;;;;22.46;46.97;95415.09;4909207;29;20098;-64
2021/10/09 02:10:43;;;;;;;42.38;38.60;;;;;;;22.44;47.24;95412.13;4928477;29;20039;-65
2021/10/09 02:13:10;;;;;;;41.90;38.20;;;;;;;22.45;47.17;95413.59;4912182;29;20042;-64
2021/10/09 02:15:41;;;;;;;28.42;26.30;;;;;;;22.45;46.97;95413.59;4928511;29;20039;-63
2021/10/09 02:26:09;;;;;;;38.05;34.90;;;;;;;22.43;46.96;95421.53;4928907;29;20055;-64
2021/10/09 02:28:35;;;;;;;36.72;33.78;;;;;;;22.42;46.75;95420.06;4925020;29;20032;-64
2021/10/09 02:31:00;;;;;;;34.55;31.65;;;;;;;22.43;46.94;95421.53;4928426;29;20024;-64
2021/10/09 02:33:26;;;;;;;33.78;31.02;;;;;;;22.41;46.83;95423.28;4927725;29;20035;-64
2021/10/09 02:35:51;;;;;;;35.70;32.75;;;;;;;22.41;47.02;95417.84;4928424;29;20040;-65
2021/10/09 02:38:17;;;;;;;40.03;36.58;;;;;;;22.40;47.21;95422.50;4927989;29;20483;-65
2021/10/09 02:40:42;;;;;;;43.55;39.65;;;;;;;22.41;46.64;95428.72;4911752;29;20027;-65
2021/10/09 02:43:08;;;;;;;44.05;40.10;;;;;;;22.39;47.19;95421.03;4926196;29;20059;-65
2021/10/09 02:45:33;;;;;;;45.33;41.08;;;;;;;22.38;46.75;95425.00;4928205;29;20039;-65
2021/10/09 02:48:00;;;;;;;43.05;39.10;;;;;;;22.38;47.12;95419.53;4927491;29;20096;-65
2021/10/09 02:50:26;;;;;;;45.08;40.90;;;;;;;22.35;47.19;95420.53;4928572;29;20064;-64
2021/10/09 02:52:51;;;;;;;46.58;42.17;;;;;;;22.38;47.07;95422.28;4927896;29;20098;-65
2021/10/09 02:55:20;;;;;;;44.17;40.22;;;;;;;22.36;47.17;95422.03;4928090;29;20042;-65
2021/10/09 02:57:48;;;;;;;38.70;35.35;;;;;;;22.36;46.73;95422.03;4927365;29;20028;-65
2021/10/09 03:00:14;;;;;;;37.50;34.30;;;;;;;22.36;47.06;95427.47;4928406;29;20031;-65
2021/10/09 03:02:40;;;;;;;34.58;31.75;;;;;;;22.34;46.96;95418.31;4927346;29;20640;-65
2021/10/09 03:05:06;;;;;;;41.85;38.20;;;;;;;22.34;46.92;95424.47;4927311;29;20040;-66
2021/10/09 03:07:31;;;;;;;47.35;42.90;;;;;;;22.31;47.15;95420.03;4928446;29;20019;-65
2021/10/09 03:09:57;;;;;;;47.15;42.63;;;;;;;22.33;46.66;95423.00;4926249;29;20027;-65
2021/10/09 03:12:22;;;;;;;43.75;39.78;;;;;;;22.32;46.96;95426.97;4931185;29;20415;-65
2021/10/09 03:14:48;;;;;;;47.63;43.08;;;;;;;22.28;46.66;95415.56;4930539;29;20035;-65
2021/10/09 03:17:13;;;;;;;39.50;36.10;;;;;;;22.28;46.96;95410.13;4930283;29;20031;-65
2021/10/09 03:19:39;;;;;;;47.58;43.17;;;;;;;22.30;46.75;95429.44;4914369;29;20819;-65
2021/10/09 03:22:04;;;;;;;40.08;36.67;;;;;;;22.20;46.84;95408.38;4929537;29;20020;-65
2021/10/09 03:24:30;;;;;;;46.10;41.88;;;;;;;22.32;46.60;95421.50;4914847;29;20466;-66
2021/10/09 03:26:55;;;;;;;46.53;42.17;;;;;;;22.32;46.73;95421.50;4931760;29;20032;-65
2021/10/09 03:29:20;;;;;;;47.65;43.10;;;;;;;22.30;46.82;95418.56;4930097;29;20019;-65
2021/10/09 03:31:46;;;;;;;44.38;40.35;;;;;;;22.18;46.94;95406.13;4931579;29;20036;-65
2021/10/09 03:34:11;;;;;;;46.50;42.17;;;;;;;22.30;46.78;95424.00;4931303;29;20533;-65
2021/10/09 03:36:37;;;;;;;40.10;36.70;;;;;;;22.30;46.65;95418.56;4930534;29;20046;-65
2021/10/09 03:39:07;;;;;;;42.70;38.75;;;;;;;22.31;46.83;95419.28;4913873;29;20782;-65
2021/10/09 03:41:33;;;;;;;49.90;45.05;;;;;;;22.29;46.78;95417.06;4945248;29;20027;-65
2021/10/09 03:43:58;;;;;;;49.15;44.53;;;;;;;22.30;46.85;95417.78;4949533;29;20027;-65
2021/10/09 03:46:27;;;;;;;42.20;38.50;;;;;;;22.29;46.77;95422.50;4950001;29;20517;-64
2021/10/09 03:49:21;;;;;;;45.13;40.97;;;;;;;22.29;46.99;95411.63;4933546;29;20043;-65
2021/10/09 03:54:30;;;;;;;43.28;39.30;;;;;;;22.24;46.49;95425.19;4930314;29;20130;-65
2021/10/09 03:56:56;;;;;;;46.38;42.10;;;;;;;22.27;47.02;95419.53;4929165;29;20047;-65
2021/10/09 03:59:21;;;;;;;43.78;39.88;;;;;;;22.27;46.57;95419.53;4931165;29;20095;-65
2021/10/09 04:01:47;;;;;;;47.10;42.60;;;;;;;22.27;46.82;95413.34;4929480;29;20031;-65
2021/10/09 04:04:12;;;;;;;44.47;40.42;;;;;;;21.96;46.90;95378.88;4930785;29;20052;-65
2021/10/09 04:06:38;;;;;;;43.53;39.63;;;;;;;22.25;46.48;95422.00;4929365;29;20559;-65
2021/10/09 04:09:03;;;;;;;53.72;48.38;;;;;;;22.25;46.60;95416.53;4913918;29;20032;-65
2021/10/09 04:11:29;;;;;;;50.75;45.90;;;;;;;22.03;46.71;95383.84;4928878;29;20027;-65
2021/10/09 04:13:54;;;;;;;45.13;41.00;;;;;;;22.27;46.49;95419.53;4930856;29;20026;-65
2021/10/09 04:16:19;;;;;;;53.38;48.08;;;;;;;22.25;46.79;95411.09;4929022;29;20562;-65
2021/10/09 04:18:45;;;;;;;51.88;46.85;;;;;;;22.25;46.65;95422.00;4930864;29;20465;-65
2021/10/09 04:21:10;;;;;;;43.08;39.20;;;;;;;22.25;46.58;95416.53;4929428;29;20046;-65
2021/10/09 04:23:36;;;;;;;54.53;49.15;;;;;;;22.25;46.44;95411.09;4929474;29;20031;-65
2021/10/09 04:26:01;;;;;;;45.42;41.28;;;;;;;22.21;46.85;95426.94;4928088;29;20027;-65
2021/10/09 04:28:26;;;;;;;51.28;46.22;;;;;;;22.23;46.92;95424.47;4930267;29;20036;-65
2021/10/09 04:30:52;;;;;;;52.40;47.15;;;;;;;22.22;46.70;95420.25;4928671;29;20032;-65
2021/10/09 04:33:17;;;;;;;55.25;49.65;;;;;;;22.23;46.84;95423.72;4930120;29;20054;-64
2021/10/09 04:35:43;;;;;;;44.95;40.78;;;;;;;22.22;46.37;95417.53;4928411;29;20024;-65
2021/10/09 04:38:08;;;;;;;43.13;39.22;;;;;;;22.23;46.84;95424.47;4930374;29;20035;-65
2021/10/09 04:40:34;;;;;;;55.90;50.15;;;;;;;22.23;46.51;95424.47;4929392;29;20019;-65
2021/10/09 04:42:59;;;;;;;47.30;42.75;;;;;;;22.22;46.63;95427.69;4945823;29;20039;-66
2021/10/09 04:45:25;;;;;;;54.28;48.85;;;;;;;22.18;46.65;95422.44;4931166;29;20503;-65
2021/10/09 04:47:50;;;;;;;60.33;53.95;;;;;;;22.21;46.44;95432.38;4929137;29;20031;-65
2021/10/09 04:50:16;;;;;;;58.58;52.40;;;;;;;22.21;46.45;95426.94;4928926;29;20031;-65
2021/10/09 04:52:41;;;;;;;70.53;61.38;;;;;;;22.23;46.57;95429.16;4911067;29;20554;-65
2021/10/09 04:55:07;;;;;;;65.95;58.60;;;;;;;22.22;46.53;95422.97;4910540;29;20037;-65
2021/10/09 04:57:33;;;;;;;59.13;52.90;;;;;;;22.22;46.65;95425.69;4921178;29;20052;-65
2021/10/09 04:59:58;;;;;;;76.45;65.20;;;;;;;22.21;46.89;95426.94;4930076;29;20043;-64
2021/10/09 05:02:24;;;;;;;73.13;63.08;;;;;;;22.19;46.67;95440.25;4930462;29;20027;-64
2021/10/09 05:04:49;;;;;;;78.43;66.60;;;;;;;22.23;46.34;95434.63;4931520;29;20051;-66
2021/10/09 05:07:14;;;;;;;75.95;64.47;;;;;;;22.20;46.98;95436.31;4948617;28;20031;-68
2021/10/09 05:09:42;;;;;;;73.45;64.00;;;;;;;22.20;47.00;95435.56;4950391;28;20031;-69
2021/10/09 05:12:08;;;;;;;59.58;53.42;;;;;;;22.20;46.81;95436.31;4948115;28;20792;-68
2021/10/09 05:14:34;;;;;;;61.78;55.22;;;;;;;22.22;46.62;95444.00;4950798;28;20529;-68
2021/10/09 05:16:59;;;;;;;75.18;64.80;;;;;;;22.14;46.95;95427.38;4959543;28;20027;-67
2021/10/09 05:19:25;;;;;;;66.15;58.80;;;;;;;22.08;46.75;95418.47;4948378;28;20101;-68
2021/10/09 05:21:50;;;;;;;81.35;67.45;;;;;;;22.27;46.84;95435.84;4948242;28;20023;-67
2021/10/09 05:24:16;;;;;;;60.90;54.28;;;;;;;22.30;47.14;95434.88;4960520;28;20485;-67
2021/10/09 05:26:41;;;;;;;68.25;59.30;;;;;;;22.35;46.97;95442.31;4962988;28;20035;-67
2021/10/09 05:29:13;;;;;;;64.68;57.65;;;;;;;22.40;46.34;95433.41;4948035;28;20034;-68
2021/10/09 05:31:39;;;;;;;67.53;59.40;;;;;;;22.46;46.74;95442.31;4947960;28;20046;-68
2021/10/09 05:34:04;;;;;;;67.03;59.03;;;;;;;22.53;46.03;95442.56;4937298;28;20037;-68
2021/10/09 05:36:30;;;;;;;85.95;70.05;;;;;;;22.59;46.09;95445.31;4947513;28;20091;-69
2021/10/09 05:38:55;;;;;;;85.47;69.65;;;;;;;22.66;46.13;95439.34;4947945;28;20043;-70
2021/10/09 05:41:21;;;;;;;75.78;64.90;;;;;;;22.59;45.59;95412.66;4959933;28;20027;-71
2021/10/09 05:43:46;;;;;;;71.10;61.03;;;;;;;22.82;45.48;95446.81;4929351;28;20022;-66
2021/10/09 05:46:13;;;;;;;95.78;75.57;;;;;;;22.82;45.63;95441.34;4936925;29;20038;-66
2021/10/09 05:48:40;;;;;;;92.35;73.68;;;;;;;22.98;45.63;95439.41;4947813;28;20390;-65
2021/10/09 05:51:21;;;;;;;92.63;74.30;;;;;;;23.04;45.54;95445.59;4947596;28;20030;-65
2021/10/09 05:56:26;;;;;;;81.25;67.45;;;;;;;23.23;45.52;95460.19;4947627;28;20478;-66
2021/10/09 06:02:33;;;;;;;87.90;71.30;;;;;;;23.41;45.33;95470.56;4947994;28;20610;-68
2021/10/09 06:43:22;;;;;;;159.02;103.22;;;;;;;24.11;43.42;95483.28;4912862;29;20115;-71
2021/10/09 06:59:51;;;;;;;178.27;110.70;;;;;;;24.33;42.91;95487.91;4926814;29;20054;-68
2021/10/09 07:02:17;;;;;;;177.60;109.70;;;;;;;24.39;42.71;95471.03;4914422;29;20024;-69
2021/10/09 07:04:42;;;;;;;180.45;110.28;;;;;;;24.44;42.38;95472.97;4927504;29;20649;-68
2021/10/09 07:07:10;;;;;;;171.00;106.30;;;;;;;24.48;42.38;95478.91;4929471;29;20653;-69
2021/10/09 07:09:35;;;;;;;182.95;112.38;;;;;;;24.55;42.16;95483.81;4929091;29;20215;-70
2021/10/09 07:12:00;;;;;;;168.48;106.20;;;;;;;24.64;42.18;95496.44;4930734;29;20036;-69
2021/10/09 07:14:26;;;;;;;180.05;111.05;;;;;;;24.66;41.81;95488.47;4912913;29;20419;-70
2021/10/09 07:16:51;;;;;;;170.60;107.07;;;;;;;24.74;41.62;95489.41;4921316;29;20032;-69
2021/10/09 07:19:17;;;;;;;205.95;120.80;;;;;;;24.77;41.80;95483.69;4917710;29;20044;-69
2021/10/09 07:21:42;;;;;;;189.20;114.00;;;;;;;24.62;41.60;95482.53;4914054;29;20107;-67
2021/10/09 07:24:08;;;;;;;179.27;109.53;;;;;;;24.84;41.38;95494.06;4916616;29;20562;-67
2021/10/09 07:26:34;;;;;;;180.77;110.95;;;;;;;24.85;41.19;95492.81;4924327;29;20035;-67
2021/10/09 07:28:59;;;;;;;208.60;120.78;;;;;;;24.86;41.36;95492.31;4929180;29;20031;-67
2021/10/09 08:05:12;;;;;;;323.85;172.15;;;;;;;25.32;40.68;95484.03;5239748;23;20081;-65
2021/10/09 08:07:37;;;;;;;286.95;152.93;;;;;;;25.29;40.54;95495.22;5001535;28;20034;-66
2021/10/09 08:10:03;;;;;;;353.75;187.38;;;;;;;25.40;40.29;95491.16;5001236;28;20033;-64
2021/10/09 08:12:28;;;;;;;945.25;804.35;;;;;;;25.40;40.27;95506.81;4969819;28;20031;-64
2021/10/09 08:14:54;;;;;;;946.00;846.28;;;;;;;25.40;40.26;95501.34;4976808;28;20022;-63
2021/10/09 08:17:19;;;;;;;889.17;795.05;;;;;;;25.38;40.15;95503.84;4975616;28;20023;-64
2021/10/09 08:19:45;;;;;;;899.42;804.40;;;;;;;25.32;40.17;95484.03;4977236;28;20751;-63
2021/10/09 08:22:11;;;;;;;887.17;793.05;;;;;;;25.48;40.08;95505.00;4983091;28;20022;-64
2021/10/09 08:24:54;;;;;;;826.58;736.92;;;;;;;25.43;40.01;95505.81;4978910;28;20046;-63
2021/10/09 08:41:10;;;;;;;731.60;612.45;;;;;;;25.49;39.64;95514.69;4982955;28;20645;-64
2021/10/09 08:43:36;;;;;;;759.92;660.05;;;;;;;25.49;39.78;95520.16;4965593;28;20026;-64
2021/10/09 08:46:01;;;;;;;841.45;750.40;;;;;;;25.54;39.78;95516.63;4981816;28;20037;-64
2021/10/09 08:48:28;;;;;;;863.50;770.60;;;;;;;25.60;39.72;95520.06;4961991;28;20018;-64
2021/10/09 08:50:55;;;;;;;864.92;771.70;;;;;;;25.59;39.60;95518.56;4983644;28;20209;-64
2021/10/09 08:53:33;;;;;;;888.33;793.40;;;;;;;25.48;39.58;95513.22;4980568;28;20414;-64
2021/10/09 08:55:58;;;;;;;932.78;833.83;;;;;;;25.61;39.61;95527.03;4978901;28;20060;-64
2021/10/09 08:58:43;;;;;;;884.38;789.03;;;;;;;25.59;39.33;95524.03;4977945;28;20031;-64
2021/10/09 09:01:24;;;;;;;921.30;823.63;;;;;;;25.59;39.42;95518.56;4977693;28;20019;-63
2021/10/09 09:41:20;;;;;;;723.08;635.72;;;;;;;25.74;39.16;95529.91;4985533;28;20575;-62
2021/10/09 09:43:45;;;;;;;1008.33;902.08;;;;;;;25.81;38.68;95519.88;4964600;28;20030;-63
2021/10/09 09:46:11;;;;;;;870.78;779.28;;;;;;;25.81;38.87;95519.88;4970118;28;20049;-63
2021/10/09 09:48:36;;;;;;;740.95;639.53;;;;;;;25.79;38.88;95533.31;4977761;28;20023;-63
2021/10/09 09:51:02;;;;;;;788.55;702.25;;;;;;;25.81;38.89;95522.63;4966687;28;20086;-63
2021/10/09 09:53:27;;;;;;;725.83;616.85;;;;;;;25.74;38.80;95508.00;4974044;28;20054;-63
2021/10/09 09:55:53;;;;;;;773.92;689.13;;;;;;;25.79;38.89;95538.78;4977327;28;20511;-63
2021/10/09 09:58:20;;;;;;;916.05;818.88;;;;;;;25.92;39.08;95529.97;4981964;28;20500;-63
2021/10/09 10:00:46;;;;;;;764.30;661.75;;;;;;;25.84;38.84;95535.28;4968967;28;20026;-63
2021/10/09 10:03:11;;;;;;;624.67;470.42;;;;;;;25.88;38.56;95541.19;4981856;28;20030;-63
2021/10/09 10:05:37;;;;;;;629.92;476.45;;;;;;;25.98;38.84;95534.13;4978967;28;20050;-64
2021/10/09 10:08:02;;;;;;;612.33;451.27;;;;;;;25.81;38.70;95519.88;4973741;28;20519;-62
2021/10/09 10:10:28;;;;;;;611.33;449.52;;;;;;;25.94;38.84;95539.13;4963023;28;20078;-63
2021/10/09 10:12:59;;;;;;;608.80;444.15;;;;;;;25.90;38.84;95538.69;4967707;28;20025;-63
2021/10/09 10:15:28;;;;;;;618.08;455.83;;;;;;;25.88;38.93;95541.19;4971643;28;20029;-62
2021/10/09 10:17:54;;;;;;;598.83;429.77;;;;;;;25.90;38.58;95538.69;4965496;28;20120;-63
2021/10/09 10:20:20;;;;;;;594.42;424.20;;;;;;;25.90;38.55;95533.22;4969875;28;20023;-63
2021/10/09 10:22:45;;;;;;;602.30;434.02;;;;;;;25.96;38.88;95536.66;4965848;28;20112;-63
2021/10/09 10:25:23;;;;;;;608.55;440.50;;;;;;;26.06;38.65;95539.78;4974363;28;20174;-62
2021/10/09 10:27:58;;;;;;;616.72;449.42;;;;;;;26.11;38.50;95530.75;4972771;28;20038;-62
2021/10/09 10:30:24;;;;;;;608.03;438.35;;;;;;;25.98;38.67;95533.41;4976690;28;20030;-62
2021/10/09 10:32:55;;;;;;;626.65;464.50;;;;;;;26.02;38.46;95529.13;4978245;28;20074;-63
2021/10/09 10:35:33;;;;;;;629.40;468.02;;;;;;;26.04;38.44;95526.59;4977212;28;20412;-62
2021/10/09 10:38:03;;;;;;;636.40;475.10;;;;;;;26.03;38.69;95536.06;4975263;28;20035;-61
2021/10/09 10:40:49;;;;;;;626.03;461.63;;;;;;;25.97;38.62;95521.69;4976688;28;20026;-63
2021/10/09 10:43:31;;;;;;;637.58;477.75;;;;;;;26.04;38.50;95521.13;4981899;28;20049;-63
2021/10/09 10:46:18;;;;;;;637.15;476.00;;;;;;;25.94;38.48;95525.47;4973942;28;20037;-64
2021/10/09 10:48:56;;;;;;;623.55;458.73;;;;;;;25.97;38.89;95527.16;4974573;28;20512;-63
2021/10/09 10:51:40;;;;;;;624.83;460.85;;;;;;;25.92;38.74;95524.50;4942136;28;20106;-62
2021/10/09 10:56:55;;;;;;;651.45;491.08;;;;;;;25.93;38.87;95525.97;4969537;28;20046;-62
2021/10/09 10:59:31;;;;;;;641.80;479.48;;;;;;;25.95;38.35;95528.97;4967146;28;20441;-63
2021/10/09 11:02:25;;;;;;;661.05;504.67;;;;;;;25.92;38.49;95530.72;4968086;28;20034;-63
2021/10/09 11:04:56;;;;;;;647.15;485.65;;;;;;;26.04;38.57;95521.13;4966031;28;20531;-63
2021/10/09 11:07:27;;;;;;;712.38;574.47;;;;;;;26.10;38.25;95529.25;4968297;28;20035;-62
2021/10/09 11:09:52;;;;;;;776.63;688.72;;;;;;;26.05;38.57;95527.34;4982250;28;20092;-63
2021/10/09 11:12:22;;;;;;;747.83;634.00;;;;;;;25.98;38.26;95534.13;4977918;28;20031;-63
2021/10/09 11:14:47;;;;;;;757.22;639.35;;;;;;;26.02;38.38;95534.59;4975566;28;20050;-62
2021/10/09 11:17:13;;;;;;;833.40;742.88;;;;;;;25.91;38.47;95509.34;4967859;28;20042;-62
2021/10/09 11:19:48;;;;;;;667.10;515.50;;;;;;;25.98;38.33;95514.25;4947062;28;20035;-62
2021/10/09 11:22:18;;;;;;;688.78;542.25;;;;;;;25.92;38.25;95519.75;4950184;28;20035;-63
2021/10/09 11:24:43;;;;;;;;;;;;;;;25.92;38.82;95519.75;4970206;28;20057;-63
2021/10/09 11:27:09;;;;;;;730.75;602.17;;;;;;;25.89;38.78;95504.38;4966975;28;20713;-63
2021/10/09 11:29:35;;;;;;;685.85;530.95;;;;;;;25.98;38.60;95517.72;4974882;28;20059;-62
2021/10/09 11:32:05;;;;;;;705.17;564.05;;;;;;;25.98;38.44;95506.75;4966640;28;20018;-62
2021/10/09 11:34:30;;;;;;;;;;;;;;;26.07;38.13;95503.69;4981665;28;20065;-62
2021/10/09 11:36:55;;;;;;;752.50;646.70;;;;;;;26.06;38.13;95504.91;4961214;28;19918;-62
2021/10/09 11:39:24;;;;;;;805.10;714.08;;;;;;;26.00;38.36;95512.44;4972440;28;20034;-62
2021/10/09 11:42:11;;;;;;;767.92;652.97;;;;;;;25.93;38.37;95509.56;4971646;28;20027;-62
2021/10/09 11:44:42;;;;;;;891.75;796.08;;;;;;;26.04;38.46;95514.91;4972954;28;20134;-62
2021/10/09 11:55:02;;;;;;;931.97;831.15;;;;;;;25.98;38.37;95506.03;4942586;28;20120;-64
2021/10/09 11:57:31;;;;;;;483.45;304.95;;;;;;;25.92;37.86;95486.94;4953551;28;20030;-63
2021/10/09 11:59:56;;;;;;;480.50;299.58;;;;;;;26.04;38.39;95521.13;4967628;28;20030;-61
2021/10/09 12:02:33;;;;;;;504.35;322.95;;;;;;;26.06;38.12;95518.59;4988373;28;20791;-63
2021/10/09 12:04:59;;;;;;;547.13;365.92;;;;;;;26.05;38.23;95511.66;4988060;28;20054;-63
2021/10/09 12:07:24;;;;;;;554.20;379.35;;;;;;;25.87;38.33;95512.38;4988101;28;20480;-63
2021/10/09 12:10:00;;;;;;;653.83;514.47;;;;;;;26.04;38.47;95520.41;4988616;28;20416;-63
2021/10/09 12:12:31;;;;;;;640.60;488.80;;;;;;;26.05;38.72;95522.63;4976232;28;20113;-63
2021/10/09 12:14:57;;;;;;;562.60;379.30;;;;;;;25.97;39.21;95516.22;4987801;28;20022;-63
2021/10/09 12:17:32;;;;;;;595.38;423.42;;;;;;;25.91;39.65;95512.81;4988252;28;20125;-63
2021/10/09 12:19:58;;;;;;;675.85;532.03;;;;;;;25.92;39.35;95514.28;4972147;28;20489;-62
2021/10/09 12:22:24;;;;;;;584.28;407.35;;;;;;;25.85;40.83;95514.84;4970135;28;20038;-66
2021/10/09 12:24:51;;;;;;;501.67;330.70;;;;;;;25.81;40.17;95514.41;4971846;28;20053;-65
2021/10/09 12:27:16;;;;;;;619.90;479.05;;;;;;;25.78;40.32;95513.94;4973407;28;20114;-64
2021/10/09 12:30:05;;;;;;;543.25;388.15;;;;;;;25.77;40.24;95512.47;4987773;28;20499;-64
2021/10/09 12:32:41;;;;;;;710.50;603.03;;;;;;;25.81;40.22;95514.41;4987091;28;20026;-65
2021/10/09 12:35:10;;;;;;;699.47;583.00;;;;;;;25.79;40.14;95521.66;4967919;28;20022;-66
2021/10/09 12:37:36;;;;;;;736.13;635.03;;;;;;;25.70;40.08;95518.50;4986076;28;20018;-66
2021/10/09 12:40:16;;;;;;;1211.03;999.90;;;;;;;25.69;40.22;95522.50;4986825;28;20615;-66
2021/10/09 12:42:52;;;;;;;1002.73;891.80;;;;;;;25.63;40.57;95535.44;4987195;28;20413;-64
2021/10/09 12:45:17;;;;;;;813.95;724.53;;;;;;;25.53;40.12;95520.63;4985358;28;20041;-63
2021/10/09 12:47:43;;;;;;;886.58;792.08;;;;;;;25.65;40.22;95539.19;4986005;28;20424;-64
2021/10/09 12:50:09;;;;;;;1000.60;896.10;;;;;;;25.62;40.11;95539.44;4969761;28;20026;-64
2021/10/09 12:52:34;;;;;;;1168.22;999.90;;;;;;;25.58;40.18;95544.47;4986496;28;20022;-64
2021/10/09 12:55:02;;;;;;;1210.20;999.90;;;;;;;25.57;40.23;95537.50;4988578;28;20033;-64
2021/10/09 12:57:31;;;;;;;1299.68;999.90;;;;;;;25.57;40.16;95553.91;4986890;28;20023;-63
2021/10/09 12:59:57;;;;;;;1208.65;999.90;;;;;;;25.51;40.26;95556.69;4985391;28;20041;-64
2021/10/09 13:02:22;;;;;;;1210.57;999.90;;;;;;;25.39;40.26;95538.16;4982235;28;20042;-63
2021/10/09 13:04:48;;;;;;;1294.68;999.90;;;;;;;25.44;40.29;95556.50;4984929;28;20065;-63
2021/10/09 13:07:13;;;;;;;1295.07;999.90;;;;;;;25.43;40.12;95560.50;4974657;28;20042;-63
2021/10/09 13:09:39;;;;;;;1299.45;999.90;;;;;;;25.38;40.48;95559.28;4971388;28;20560;-62
2021/10/09 13:12:07;;;;;;;1300.60;999.90;;;;;;;25.41;40.25;95573.91;4968445;28;20739;-64
2021/10/09 13:14:32;;;;;;;1276.88;999.90;;;;;;;25.39;40.75;95581.91;4977402;28;20481;-66
2021/10/09 13:16:58;;;;;;;1260.55;999.90;;;;;;;25.24;40.59;95570.56;4965682;28;20030;-65
2021/10/09 13:19:23;;;;;;;1272.35;999.90;;;;;;;25.39;40.44;95581.91;4971402;28;20045;-66
2021/10/09 13:21:49;;;;;;;1323.47;999.90;;;;;;;25.35;40.34;95570.47;4969430;28;20023;-64
2021/10/09 13:24:14;;;;;;;1313.65;999.90;;;;;;;25.31;40.21;95586.44;4971942;28;20034;-65
2021/10/09 13:26:40;;;;;;;1295.72;999.90;;;;;;;25.25;40.50;95566.59;4967913;28;20019;-65
2021/10/09 13:29:06;;;;;;;1300.82;999.90;;;;;;;25.31;40.56;95561.84;4968864;28;20015;-65
2021/10/09 13:31:31;;;;;;;1295.75;999.90;;;;;;;25.32;40.37;95560.59;4971574;28;20021;-65
2021/10/09 13:33:57;;;;;;;1295.13;999.90;;;;;;;25.21;40.20;95566.13;4968551;28;20122;-62
2021/10/09 13:36:23;;;;;;;1285.07;999.90;;;;;;;25.27;40.39;95575.03;4975737;28;20049;-61
2021/10/09 13:38:49;;;;;;;1291.32;999.90;;;;;;;25.28;40.31;95571.06;4954595;28;20041;-61
2021/10/09 13:41:15;;;;;;;1280.88;999.90;;;;;;;25.26;40.47;95579.03;4970003;28;20030;-62
2021/10/09 13:43:40;;;;;;;1269.35;999.90;;;;;;;25.26;40.36;95567.34;4967678;28;20019;-65
2021/10/09 13:46:06;;;;;;;1272.20;999.90;;;;;;;25.24;40.42;95576.03;4968160;28;20085;-62
2021/10/09 13:48:31;;;;;;;1275.65;999.90;;;;;;;25.26;40.20;95617.31;4967349;28;20481;-62
2021/10/09 13:50:57;;;;;;;1291.03;999.90;;;;;;;25.19;40.48;95563.16;4959933;28;20029;-63
2021/10/09 13:53:23;;;;;;;1293.97;999.90;;;;;;;25.24;40.43;95565.09;4968941;28;20019;-63
2021/10/09 13:55:48;;;;;;;1277.53;999.90;;;;;;;25.26;40.46;95568.09;4952038;28;20134;-63
2021/10/09 13:58:14;;;;;;;1276.82;999.90;;;;;;;25.24;40.51;95570.56;4978300;28;20030;-63